Time;durP1;ratioP1;P1;durP2;ratioP2;P2;SDS_P1;SDS_P2;PMS_P1;PMS_P2;Temp;Humidity;BMP_temperature;BMP_pressure;BME280_temperature;BME280_humidity;BME280_pressure;Samples;Min_cycle;Max_cycle;Signal;HPM_P1;HPM_P2
2021/12/16 00:01:41;;;;;;;53.88;41.10;;;11.40;99.90;;;;;;2071632;28;20030;-72
2021/12/16 00:01:50;;;;;;;54.55;41.60;;;11.30;99.90;;;;;;2063631;28;20034;-72
2021/12/16 00:08:14;;;;;;;60.97;42.97;;;11.30;99.90;;;;;;2071925;28;20033;-72
2021/12/16 00:09:20;;;;;;;58.92;42.80;;;11.30;99.90;;;;;;2064055;28;20023;-72
2021/12/16 00:10:34;;;;;;;56.53;43.17;;;11.30;99.90;;;;;;2068307;28;20033;-72
2021/12/16 00:30:05;;;;;;;58.83;42.67;;;11.20;99.90;;;;;;2071238;28;20057;-72
2021/12/16 00:31:34;;;;;;;57.95;42.70;;;11.20;99.90;;;;;;2071224;28;20087;-72
2021/12/16 00:33:56;;;;;;;58.45;42.85;;;11.20;99.90;;;;;;2071773;28;20041;-72
2021/12/16 00:34:57;;;;;;;59.25;43.58;;;11.20;99.90;;;;;;2071793;28;20034;-72
2021/12/16 00:35:59;;;;;;;59.55;44.70;;;11.20;99.90;;;;;;2071442;28;20033;-72
2021/12/16 00:37:00;;;;;;;59.58;44.20;;;11.20;99.90;;;;;;2071592;28;20022;-72
2021/12/16 00:38:01;;;;;;;60.42;43.60;;;11.20;99.90;;;;;;2070733;28;20038;-72
2021/12/16 00:39:05;;;;;;;58.78;43.40;;;11.20;99.90;;;;;;2071018;28;20030;-72
2021/12/16 00:40:11;;;;;;;58.75;42.97;;;11.30;99.90;;;;;;2068804;28;20033;-72
2021/12/16 00:41:12;;;;;;;62.75;44.00;;;11.30;99.90;;;;;;2071352;28;20394;-72
2021/12/16 00:42:32;;;;;;;63.33;44.78;;;11.30;99.90;;;;;;2071684;28;20044;-72
2021/12/16 00:43:39;;;;;;;59.88;42.83;;;11.30;99.90;;;;;;2071721;28;20356;-72
2021/12/16 00:45:59;;;;;;;61.33;44.55;;;11.30;99.90;;;;;;2071714;28;20030;-72
2021/12/16 00:49:23;;;;;;;58.85;43.75;;;11.30;99.90;;;;;;2071543;28;20425;-72
2021/12/16 00:54:13;;;;;;;66.40;44.60;;;11.30;99.90;;;;;;2071501;28;20264;-72
2021/12/16 00:55:31;;;;;;;63.30;45.70;;;11.30;99.90;;;;;;2071562;28;20022;-72
2021/12/16 00:56:32;;;;;;;63.38;45.13;;;11.30;99.90;;;;;;2071475;28;20378;-72
2021/12/16 00:57:32;;;;;;;62.88;44.03;;;11.30;99.90;;;;;;2071396;28;20025;-72
2021/12/16 00:58:47;;;;;;;62.70;44.67;;;11.30;99.90;;;;;;2071498;28;20053;-72
2021/12/16 00:59:49;;;;;;;60.00;44.03;;;11.30;99.90;;;;;;2071766;28;20026;-72
2021/12/16 01:00:59;;;;;;;63.92;44.90;;;11.30;99.90;;;;;;2071693;28;20030;-72
2021/12/16 01:07:10;;;;;;;60.47;45.22;;;11.30;99.90;;;;;;2071578;28;20059;-72
2021/12/16 01:08:31;;;;;;;;;;;11.30;99.90;;;;;;2071334;28;20058;-71
2021/12/16 01:35:52;;;;;;;66.78;47.55;;;11.20;99.90;;;;;;2070302;28;20156;-72
2021/12/16 01:39:36;;;;;;;64.30;47.20;;;11.20;99.90;;;;;;2071663;28;20030;-72
2021/12/16 01:42:10;;;;;;;71.30;48.05;;;11.20;99.90;;;;;;2070495;28;20037;-72
2021/12/16 01:49:08;;;;;;;71.70;51.55;;;11.20;99.90;;;;;;2071079;28;20037;-72
2021/12/16 01:50:09;;;;;;;69.75;50.55;;;11.30;99.90;;;;;;2071151;28;20112;-72
2021/12/16 01:51:23;;;;;;;75.72;52.88;;;11.30;99.90;;;;;;2072127;28;20041;-72
2021/12/16 01:53:05;;;;;;;79.60;53.58;;;11.30;99.90;;;;;;2076130;28;20022;-72
2021/12/16 01:55:56;;;;;;;71.50;49.30;;;11.30;99.90;;;;;;2071292;28;20382;-72
2021/12/16 01:57:11;;;;;;;74.85;51.20;;;11.20;99.90;;;;;;2070972;28;20065;-72
2021/12/16 01:58:17;;;;;;;72.97;51.00;;;11.20;99.90;;;;;;2071604;28;20014;-72
2021/12/16 01:59:21;;;;;;;74.03;50.05;;;11.20;99.90;;;;;;2071400;28;20037;-72
2021/12/16 02:01:30;;;;;;;75.25;50.50;;;11.30;99.90;;;;;;2072159;28;20076;-71
2021/12/16 02:03:54;;;;;;;77.32;53.65;;;11.20;99.90;;;;;;2071224;28;20018;-71
2021/12/16 02:05:10;;;;;;;76.97;51.72;;;11.30;99.90;;;;;;2071052;28;20116;-72
2021/12/16 02:08:49;;;;;;;76.68;54.40;;;11.20;99.90;;;;;;2070878;28;20037;-71
2021/12/16 02:09:49;;;;;;;82.20;54.65;;;11.30;99.90;;;;;;2069349;28;20026;-71
2021/12/16 02:11:17;;;;;;;82.65;57.78;;;11.30;99.90;;;;;;2071209;28;20050;-71
2021/12/16 02:12:44;;;;;;;80.57;55.88;;;11.30;99.90;;;;;;2070190;28;20482;-71
2021/12/16 02:27:16;;;;;;;;;;;11.30;99.90;;;;;;2071382;28;20026;-71
2021/12/16 02:32:04;;;;;;;84.20;55.20;;;11.30;99.90;;;;;;2070363;28;20125;-71
2021/12/16 02:36:42;;;;;;;89.18;56.15;;;11.30;99.90;;;;;;2069345;28;20061;-71
2021/12/16 02:37:47;;;;;;;82.45;54.42;;;11.30;99.90;;;;;;2070071;28;20034;-71
2021/12/16 02:38:53;;;;;;;82.22;53.58;;;11.30;99.90;;;;;;2070342;28;20375;-71
2021/12/16 02:39:54;;;;;;;84.55;57.45;;;11.30;99.90;;;;;;2070962;28;20036;-71
2021/12/16 02:40:55;;;;;;;83.95;56.42;;;11.30;99.90;;;;;;2071052;28;20041;-71
2021/12/16 02:42:05;;;;;;;84.32;56.92;;;11.30;99.90;;;;;;2070714;28;20533;-71
2021/12/16 02:43:54;;;;;;;82.05;54.13;;;11.30;99.90;;;;;;2071143;28;20026;-71
2021/12/16 02:48:35;;;;;;;84.50;55.47;;;11.30;99.90;;;;;;2067584;28;20455;-71
2021/12/16 02:49:35;;;;;;;86.68;56.17;;;11.30;99.90;;;;;;2072807;28;20484;-71
2021/12/16 02:50:36;;;;;;;86.85;55.47;;;11.30;99.90;;;;;;2070862;28;20029;-71
2021/12/16 02:51:37;;;;;;;83.35;55.47;;;11.30;99.90;;;;;;2078005;28;20022;-71
2021/12/16 02:52:37;;;;;;;84.53;57.75;;;11.30;99.90;;;;;;2077720;28;20682;-71
2021/12/16 02:53:44;;;;;;;85.45;55.92;;;11.30;99.90;;;;;;2075698;28;20026;-71
2021/12/16 02:54:45;;;;;;;83.90;55.25;;;11.40;99.90;;;;;;2072625;28;20052;-71
2021/12/16 02:55:46;;;;;;;82.95;55.08;;;11.30;99.90;;;;;;2072510;28;20033;-71
2021/12/16 02:56:47;;;;;;;88.93;56.53;;;11.40;99.90;;;;;;2075595;28;20478;-71
2021/12/16 02:57:59;;;;;;;87.05;57.38;;;11.40;99.90;;;;;;2072927;28;20104;-71
2021/12/16 02:59:00;;;;;;;88.53;56.58;;;11.40;99.90;;;;;;2072525;28;20100;-71
2021/12/16 03:00:02;;;;;;;86.47;58.35;;;11.40;99.90;;;;;;2072020;28;20105;-71
2021/12/16 03:01:17;;;;;;;81.38;56.70;;;11.40;99.90;;;;;;2072305;28;20029;-71
2021/12/16 03:02:19;;;;;;;91.13;58.70;;;11.40;99.90;;;;;;2070424;28;20113;-71
2021/12/16 03:03:20;;;;;;;84.72;56.70;;;11.40;99.90;;;;;;2073662;28;20423;-71
2021/12/16 03:04:25;;;;;;;89.75;57.25;;;11.40;99.90;;;;;;2074025;28;20026;-71
2021/12/16 03:05:25;;;;;;;87.95;56.30;;;11.40;99.90;;;;;;2074130;28;20021;-71
2021/12/16 03:06:29;;;;;;;89.88;57.47;;;11.40;99.90;;;;;;2073863;28;20032;-71
2021/12/16 03:07:30;;;;;;;83.82;57.15;;;11.40;99.90;;;;;;2073997;28;20437;-71
2021/12/16 03:08:32;;;;;;;88.28;58.15;;;11.40;99.90;;;;;;2073996;28;20034;-71
2021/12/16 03:13:49;;;;;;;83.50;54.58;;;11.40;99.90;;;;;;2068549;28;20018;-71
2021/12/16 03:14:56;;;;;;;80.90;55.30;;;11.30;99.90;;;;;;2066057;28;20031;-71
2021/12/16 03:18:45;;;;;;;80.35;55.25;;;11.40;99.90;;;;;;2072950;28;20284;-71
2021/12/16 03:20:00;;;;;;;82.25;53.78;;;11.30;99.90;;;;;;2067346;28;20029;-71
2021/12/16 03:21:16;;;;;;;79.30;54.92;;;11.40;99.90;;;;;;2073854;28;20034;-71
2021/12/16 03:22:38;;;;;;;85.40;55.35;;;11.30;99.90;;;;;;2070479;28;20030;-71
2021/12/16 03:25:13;;;;;;;81.65;56.08;;;11.30;99.90;;;;;;2073892;28;20046;-71
2021/12/16 03:26:45;;;;;;;87.15;55.50;;;11.30;99.90;;;;;;2073427;28;20026;-71
2021/12/16 03:28:10;;;;;;;80.50;55.25;;;11.20;99.90;;;;;;2065498;28;20034;-71
2021/12/16 03:34:23;;;;;;;84.95;56.80;;;11.20;99.90;;;;;;2073603;28;20081;-71
2021/12/16 03:36:37;;;;;;;77.78;53.72;;;11.20;99.90;;;;;;2073657;28;20064;-71
2021/12/16 03:37:37;;;;;;;86.88;55.78;;;11.20;99.90;;;;;;2073767;28;20050;-71
2021/12/16 03:38:39;;;;;;;80.72;55.92;;;11.20;99.90;;;;;;2073683;28;20026;-71
2021/12/16 03:39:42;;;;;;;86.75;56.03;;;11.20;99.90;;;;;;2072491;28;20117;-71
2021/12/16 03:40:43;;;;;;;83.63;56.45;;;11.20;99.90;;;;;;2072856;28;20076;-72
2021/12/16 03:41:43;;;;;;;84.18;54.63;;;11.20;99.90;;;;;;2072920;28;20072;-71
2021/12/16 03:42:58;;;;;;;84.15;55.83;;;11.20;99.90;;;;;;2073410;28;20026;-71
2021/12/16 03:44:01;;;;;;;87.35;56.50;;;11.20;99.90;;;;;;2073485;28;20017;-71
2021/12/16 03:46:25;;;;;;;93.60;57.92;;;11.20;99.90;;;;;;2073691;28;20490;-71
2021/12/16 03:46:36;;;;;;;85.95;56.45;;;11.20;99.90;;;;;;2073234;28;20038;-71
2021/12/16 03:47:44;;;;;;;86.50;57.00;;;11.20;99.90;;;;;;2073794;28;20025;-71
2021/12/16 03:48:53;;;;;;;87.63;57.78;;;11.20;99.90;;;;;;2073597;28;20101;-71
2021/12/16 03:49:54;;;;;;;92.53;58.08;;;11.20;99.90;;;;;;2073422;28;20404;-71
2021/12/16 03:50:56;;;;;;;86.95;57.20;;;11.20;99.90;;;;;;2074958;28;20026;-71
2021/12/16 03:52:06;;;;;;;88.93;56.13;;;11.20;99.90;;;;;;2081387;28;20575;-71
2021/12/16 03:53:07;;;;;;;91.93;58.50;;;11.20;99.90;;;;;;2065501;28;20041;-71
2021/12/16 03:54:15;;;;;;;86.75;56.80;;;11.20;99.90;;;;;;2069737;28;20029;-71
2021/12/16 03:55:17;;;;;;;84.50;58.22;;;11.20;99.90;;;;;;2073276;28;20474;-71
2021/12/16 03:56:19;;;;;;;86.05;57.65;;;11.20;99.90;;;;;;2074931;28;20033;-71
2021/12/16 03:57:23;;;;;;;86.20;57.50;;;11.20;99.90;;;;;;2077719;28;20037;-71
2021/12/16 03:58:24;;;;;;;91.30;58.10;;;11.20;99.90;;;;;;2073741;28;20434;-71
2021/12/16 03:59:30;;;;;;;83.88;57.22;;;11.20;99.90;;;;;;2073413;28;20026;-71
2021/12/16 04:00:36;;;;;;;90.25;60.25;;;11.20;99.90;;;;;;2073231;28;20026;-71
2021/12/16 04:01:36;;;;;;;92.22;58.90;;;11.20;99.90;;;;;;2072246;28;20104;-71
2021/12/16 04:02:38;;;;;;;85.22;58.70;;;11.20;99.90;;;;;;2072664;28;20022;-71
2021/12/16 04:03:40;;;;;;;91.75;59.05;;;11.20;99.90;;;;;;2072355;28;20014;-71
2021/12/16 04:04:41;;;;;;;96.93;59.58;;;11.20;99.90;;;;;;2071395;28;20026;-71
2021/12/16 04:05:43;;;;;;;81.80;58.10;;;11.20;99.90;;;;;;2071779;28;20018;-70
2021/12/16 04:06:44;;;;;;;92.47;60.13;;;11.20;99.90;;;;;;2072499;28;20022;-71
2021/12/16 04:07:45;;;;;;;90.07;59.15;;;11.20;99.90;;;;;;2072305;28;20029;-71
2021/12/16 04:08:46;;;;;;;92.40;59.50;;;11.20;99.90;;;;;;2071944;28;20109;-71
2021/12/16 04:09:50;;;;;;;86.35;59.72;;;11.30;99.90;;;;;;2069581;28;20133;-71
2021/12/16 04:11:04;;;;;;;87.70;57.88;;;11.20;99.90;;;;;;2071954;28;20034;-71
2021/12/16 04:12:11;;;;;;;86.07;58.08;;;11.20;99.90;;;;;;2071550;28;20044;-70
2021/12/16 04:13:15;;;;;;;85.13;58.03;;;11.20;99.90;;;;;;2071959;28;20026;-70
2021/12/16 04:14:17;;;;;;;86.25;58.28;;;11.20;99.90;;;;;;2072022;28;20414;-71
2021/12/16 04:15:17;;;;;;;86.38;57.42;;;11.20;99.90;;;;;;2072186;28;20026;-71
2021/12/16 04:16:20;;;;;;;96.82;59.88;;;11.20;99.90;;;;;;2072195;28;20101;-71
2021/12/16 04:17:24;;;;;;;92.00;59.08;;;11.20;99.90;;;;;;2071986;28;20022;-71
2021/12/16 04:18:24;;;;;;;93.75;60.22;;;11.20;99.90;;;;;;2071931;28;20398;-71
2021/12/16 04:19:27;;;;;;;86.13;58.95;;;11.20;99.90;;;;;;2072130;28;20028;-71
2021/12/16 04:20:28;;;;;;;83.38;57.90;;;11.20;99.90;;;;;;2072010;28;20072;-70
2021/12/16 04:21:29;;;;;;;87.93;60.38;;;11.20;99.90;;;;;;2065659;28;20034;-70
2021/12/16 04:22:35;;;;;;;90.72;58.88;;;11.20;99.90;;;;;;2071388;28;20104;-70
2021/12/16 04:23:36;;;;;;;89.93;59.70;;;11.20;99.90;;;;;;2072066;28;20052;-71
2021/12/16 04:24:38;;;;;;;88.25;58.92;;;11.20;99.90;;;;;;2072129;28;20029;-71
2021/12/16 04:25:42;;;;;;;90.07;60.03;;;11.20;99.90;;;;;;2063855;28;20113;-71
2021/12/16 04:26:45;;;;;;;87.18;59.35;;;11.20;99.90;;;;;;2068998;28;20018;-70
2021/12/16 04:27:47;;;;;;;88.28;60.05;;;11.20;99.90;;;;;;2077376;28;20026;-70
2021/12/16 04:28:48;;;;;;;90.70;59.75;;;11.20;99.90;;;;;;2078009;28;20028;-70
2021/12/16 04:29:49;;;;;;;87.22;58.65;;;11.20;99.90;;;;;;2076366;28;20033;-70
2021/12/16 04:30:50;;;;;;;85.90;59.67;;;11.20;99.90;;;;;;2071889;28;20429;-70
2021/12/16 04:31:54;;;;;;;89.63;60.50;;;11.20;99.90;;;;;;2071335;28;20048;-71
2021/12/16 04:32:54;;;;;;;92.43;59.67;;;11.20;99.90;;;;;;2069273;28;20037;-70
2021/12/16 04:33:55;;;;;;;86.78;60.10;;;11.20;99.90;;;;;;2078809;28;20045;-71
2021/12/16 04:34:56;;;;;;;92.63;60.65;;;11.20;99.90;;;;;;2073169;28;20105;-71
2021/12/16 04:35:57;;;;;;;89.43;58.50;;;11.20;99.90;;;;;;2077700;28;20523;-71
2021/12/16 04:36:58;;;;;;;88.28;60.10;;;11.20;99.90;;;;;;2071799;28;20061;-71
2021/12/16 04:37:59;;;;;;;86.38;60.88;;;11.20;99.90;;;;;;2072092;28;20033;-70
2021/12/16 04:39:02;;;;;;;84.13;58.17;;;11.20;99.90;;;;;;2072036;28;20049;-70
2021/12/16 04:40:09;;;;;;;87.68;57.63;;;11.20;99.90;;;;;;2072156;28;20024;-71
2021/12/16 04:41:12;;;;;;;89.75;62.15;;;11.20;99.90;;;;;;2071716;28;20026;-71
2021/12/16 04:42:16;;;;;;;93.88;59.05;;;11.20;99.90;;;;;;2071705;28;20022;-70
2021/12/16 04:43:21;;;;;;;95.85;61.72;;;11.20;99.90;;;;;;2071581;28;20083;-70
2021/12/16 04:44:24;;;;;;;88.95;60.45;;;11.20;99.90;;;;;;2071831;28;20149;-70
2021/12/16 04:45:24;;;;;;;87.13;60.80;;;11.20;99.90;;;;;;2071377;28;20054;-71
2021/12/16 04:46:28;;;;;;;85.50;59.88;;;11.20;99.90;;;;;;2071264;28;20029;-71
2021/12/16 04:47:30;;;;;;;90.05;61.28;;;11.20;99.90;;;;;;2071256;28;20030;-70
2021/12/16 04:48:30;;;;;;;86.80;60.17;;;11.20;99.90;;;;;;2071985;28;20064;-70
2021/12/16 04:49:32;;;;;;;87.15;58.78;;;11.20;99.90;;;;;;2071821;28;20072;-71
2021/12/16 04:50:32;;;;;;;88.70;60.20;;;11.20;99.90;;;;;;2071647;28;20041;-71
2021/12/16 04:51:37;;;;;;;89.35;59.40;;;11.20;99.90;;;;;;2084519;28;20017;-70
2021/12/16 04:52:39;;;;;;;89.05;60.42;;;11.20;99.90;;;;;;2082493;28;20024;-70
2021/12/16 04:53:40;;;;;;;86.90;59.63;;;11.20;99.90;;;;;;2071686;28;20064;-70
2021/12/16 04:54:42;;;;;;;84.82;57.97;;;11.20;99.90;;;;;;2071894;28;20037;-70
2021/12/16 04:55:43;;;;;;;90.85;61.30;;;11.20;99.90;;;;;;2071648;28;20072;-71
2021/12/16 04:56:44;;;;;;;82.18;57.03;;;11.20;99.90;;;;;;2076541;28;20049;-71
2021/12/16 04:57:46;;;;;;;86.82;59.78;;;11.20;99.90;;;;;;2072803;28;20517;-71
2021/12/16 04:58:50;;;;;;;86.55;58.97;;;11.20;99.90;;;;;;2071139;28;20386;-71
2021/12/16 04:59:51;;;;;;;89.70;60.72;;;11.20;99.90;;;;;;2070986;28;20029;-71
2021/12/16 05:00:52;;;;;;;86.05;57.70;;;11.20;99.90;;;;;;2071673;28;20061;-70
2021/12/16 05:01:56;;;;;;;86.85;59.20;;;11.20;99.90;;;;;;2071278;28;20022;-71
2021/12/16 05:02:57;;;;;;;88.30;58.58;;;11.20;99.90;;;;;;2071500;28;20018;-71
2021/12/16 05:03:57;;;;;;;93.75;57.33;;;11.20;99.90;;;;;;2071413;28;20025;-71
2021/12/16 05:04:58;;;;;;;85.20;56.03;;;11.20;99.90;;;;;;2071745;28;20092;-71
2021/12/16 05:05:59;;;;;;;94.00;60.45;;;11.20;99.90;;;;;;2071145;28;20100;-71
2021/12/16 05:07:00;;;;;;;87.57;56.55;;;11.20;99.90;;;;;;2071073;28;20041;-71
2021/12/16 05:08:01;;;;;;;90.60;59.20;;;11.20;99.90;;;;;;2071706;28;20030;-70
2021/12/16 05:09:04;;;;;;;90.35;60.40;;;11.20;99.90;;;;;;2071681;28;20108;-70
2021/12/16 05:10:08;;;;;;;88.78;61.17;;;11.20;99.90;;;;;;2069278;28;20048;-70
2021/12/16 05:11:13;;;;;;;90.00;60.30;;;11.20;99.90;;;;;;2071243;28;20450;-71
2021/12/16 05:12:18;;;;;;;89.55;57.63;;;11.20;99.90;;;;;;2070851;28;20343;-70
2021/12/16 05:13:22;;;;;;;88.95;59.50;;;11.20;99.90;;;;;;2070996;28;20072;-70
2021/12/16 05:14:22;;;;;;;87.45;58.42;;;11.20;99.90;;;;;;2070872;28;20060;-70
2021/12/16 05:15:30;;;;;;;90.88;59.65;;;11.20;99.90;;;;;;2071744;28;20026;-70
2021/12/16 05:16:30;;;;;;;86.07;56.90;;;11.30;99.90;;;;;;2070733;28;20029;-71
2021/12/16 05:17:38;;;;;;;90.35;60.28;;;11.20;99.90;;;;;;2071950;28;20022;-70
2021/12/16 05:18:40;;;;;;;92.70;60.67;;;11.20;99.90;;;;;;2071337;28;20054;-71
2021/12/16 05:19:48;;;;;;;88.78;58.85;;;11.20;99.90;;;;;;2071646;28;20022;-71
2021/12/16 05:20:50;;;;;;;89.65;59.00;;;11.20;99.90;;;;;;2071707;28;20101;-71
2021/12/16 05:24:13;;;;;;;96.28;58.25;;;11.20;99.90;;;;;;2071452;28;20169;-71
2021/12/16 05:24:36;;;;;;;85.38;58.10;;;11.20;99.90;;;;;;2071571;28;20030;-71
2021/12/16 05:26:45;;;;;;;89.10;60.10;;;11.20;99.90;;;;;;2071241;28;20390;-71
2021/12/16 05:27:46;;;;;;;88.28;58.75;;;11.20;99.90;;;;;;2071583;28;20022;-71
2021/12/16 05:28:58;;;;;;;93.85;62.58;;;11.20;99.90;;;;;;2071027;28;20056;-71
2021/12/16 05:29:58;;;;;;;91.18;58.45;;;11.20;99.90;;;;;;2071002;28;20065;-70
2021/12/16 05:31:00;;;;;;;92.20;61.35;;;11.20;99.90;;;;;;2071000;28;20038;-71
2021/12/16 05:32:01;;;;;;;88.78;59.55;;;11.20;99.90;;;;;;2071199;28;20042;-70
2021/12/16 05:33:02;;;;;;;88.93;58.92;;;11.20;99.90;;;;;;2071352;28;20022;-71
2021/12/16 05:34:05;;;;;;;91.05;59.05;;;11.20;99.90;;;;;;2079311;28;20021;-71
2021/12/16 05:35:06;;;;;;;90.72;60.20;;;11.20;99.90;;;;;;2078647;28;20568;-71
2021/12/16 05:36:07;;;;;;;96.93;61.53;;;11.20;99.90;;;;;;2071452;28;20431;-71
2021/12/16 05:37:08;;;;;;;92.95;58.67;;;11.20;99.90;;;;;;2071503;28;20018;-71
2021/12/16 05:38:10;;;;;;;85.97;57.20;;;11.20;99.90;;;;;;2071431;28;20577;-70
2021/12/16 05:39:12;;;;;;;89.07;59.10;;;11.20;99.90;;;;;;2071401;28;20059;-71
2021/12/16 05:40:17;;;;;;;90.35;58.92;;;11.20;99.90;;;;;;2071805;28;20038;-71
2021/12/16 05:41:21;;;;;;;87.22;57.78;;;11.20;99.90;;;;;;2071295;28;20025;-70
2021/12/16 05:42:21;;;;;;;84.68;55.25;;;11.20;99.90;;;;;;2070895;28;20093;-71
2021/12/16 05:43:24;;;;;;;85.78;57.80;;;11.20;99.90;;;;;;2071394;28;20088;-70
2021/12/16 05:44:25;;;;;;;96.25;59.70;;;11.20;99.90;;;;;;2071897;28;20026;-71
2021/12/16 05:45:27;;;;;;;84.95;57.05;;;11.20;99.90;;;;;;2071596;28;20097;-70
2021/12/16 05:46:28;;;;;;;95.18;59.40;;;11.20;99.90;;;;;;2071341;28;20046;-70
2021/12/16 05:47:29;;;;;;;86.03;58.17;;;11.20;99.90;;;;;;2071265;28;20076;-71
2021/12/16 05:48:31;;;;;;;90.68;58.53;;;11.20;99.90;;;;;;2078913;28;20022;-71
2021/12/16 05:49:32;;;;;;;93.68;60.03;;;11.20;99.90;;;;;;2078469;28;20033;-70
2021/12/16 05:50:35;;;;;;;87.45;57.22;;;11.20;99.90;;;;;;2071615;28;20045;-71
2021/12/16 05:51:38;;;;;;;90.45;58.65;;;11.20;99.90;;;;;;2070812;28;20018;-71
2021/12/16 05:52:39;;;;;;;89.43;57.95;;;11.30;99.90;;;;;;2071365;28;20037;-70
2021/12/16 05:53:41;;;;;;;90.25;59.13;;;11.30;99.90;;;;;;2063986;28;20031;-70
2021/12/16 05:54:42;;;;;;;88.57;58.55;;;11.30;99.90;;;;;;2071107;28;20022;-70
2021/12/16 05:55:42;;;;;;;95.28;59.83;;;11.30;99.90;;;;;;2070912;28;20021;-70
2021/12/16 05:56:44;;;;;;;92.93;60.13;;;11.30;99.90;;;;;;2071448;28;20399;-71
2021/12/16 05:57:47;;;;;;;94.25;59.95;;;11.30;99.90;;;;;;2071351;28;20026;-71
2021/12/16 05:58:48;;;;;;;95.40;61.70;;;11.30;99.90;;;;;;2071510;28;20397;-71
2021/12/16 05:59:49;;;;;;;93.82;59.88;;;11.30;99.90;;;;;;2071290;28;20467;-71
2021/12/16 06:00:55;;;;;;;90.63;58.88;;;11.30;99.90;;;;;;2071265;28;20065;-71
2021/12/16 06:01:55;;;;;;;96.10;60.28;;;11.30;99.90;;;;;;2070922;28;20022;-70
2021/12/16 06:02:56;;;;;;;87.60;57.40;;;11.30;99.90;;;;;;2070487;28;20037;-70
2021/12/16 06:03:58;;;;;;;92.15;59.72;;;11.30;99.90;;;;;;2070446;28;20029;-71
2021/12/16 06:04:59;;;;;;;92.05;59.55;;;11.30;99.90;;;;;;2079208;28;20030;-70
2021/12/16 06:06:00;;;;;;;93.97;60.38;;;11.30;99.90;;;;;;2070818;28;20749;-70
2021/12/16 06:07:01;;;;;;;94.60;60.10;;;11.30;99.90;;;;;;2070984;28;20494;-71
2021/12/16 06:08:03;;;;;;;93.47;60.67;;;11.30;99.90;;;;;;2070639;28;20485;-71
2021/12/16 06:09:06;;;;;;;95.70;59.80;;;11.30;99.90;;;;;;2070599;28;20455;-71
2021/12/16 06:10:15;;;;;;;93.80;59.40;;;11.30;99.90;;;;;;2075894;28;20057;-70
2021/12/16 06:11:23;;;;;;;99.85;62.58;;;11.30;99.90;;;;;;2074544;28;20028;-70
2021/12/16 06:12:25;;;;;;;96.90;60.42;;;11.30;99.90;;;;;;2065256;28;20034;-70
2021/12/16 06:13:32;;;;;;;96.60;60.60;;;11.30;99.90;;;;;;2069031;28;20025;-70
2021/12/16 06:27:10;;;;;;;100.38;62.28;;;11.10;99.90;;;;;;2070854;28;20034;-71
2021/12/16 06:28:11;;;;;;;99.30;62.90;;;11.10;99.90;;;;;;2069635;28;20193;-71
2021/12/16 06:29:11;;;;;;;105.05;63.15;;;11.10;99.90;;;;;;2072592;28;20080;-72
2021/12/16 06:30:17;;;;;;;97.78;64.68;;;11.10;99.90;;;;;;2072757;28;20021;-71
2021/12/16 06:31:17;;;;;;;104.60;64.70;;;11.10;99.90;;;;;;2071861;28;20127;-71
2021/12/16 06:32:18;;;;;;;105.18;65.43;;;11.10;99.90;;;;;;2066932;28;20046;-71
2021/12/16 06:33:22;;;;;;;100.07;63.28;;;11.10;99.90;;;;;;2070226;28;20934;-70
2021/12/16 06:34:24;;;;;;;105.75;63.78;;;11.10;99.90;;;;;;2070889;28;20033;-71
2021/12/16 06:35:25;;;;;;;103.38;64.90;;;11.10;99.90;;;;;;2069791;28;20113;-71
2021/12/16 06:36:26;;;;;;;100.28;63.05;;;11.10;99.90;;;;;;2069489;28;20038;-70
2021/12/16 06:37:27;;;;;;;104.80;65.63;;;11.10;99.90;;;;;;2068206;28;20240;-71
2021/12/16 06:38:27;;;;;;;99.88;64.03;;;11.10;99.90;;;;;;2068123;28;20025;-70
2021/12/16 06:39:28;;;;;;;101.25;64.97;;;11.10;99.90;;;;;;2067465;28;20021;-70
2021/12/16 06:40:29;;;;;;;100.95;66.22;;;11.10;99.90;;;;;;2072014;28;20022;-71
2021/12/16 06:41:34;;;;;;;103.60;64.47;;;11.10;99.90;;;;;;2077481;28;20036;-70
2021/12/16 06:42:38;;;;;;;104.63;66.68;;;11.10;99.90;;;;;;2073674;28;20014;-70
2021/12/16 06:43:39;;;;;;;110.70;67.40;;;11.10;99.90;;;;;;2067246;28;20029;-70
2021/12/16 06:44:45;;;;;;;105.65;65.07;;;11.10;99.90;;;;;;2067775;28;20040;-71
2021/12/16 06:45:49;;;;;;;106.05;67.03;;;11.10;99.90;;;;;;2066249;28;20495;-71
2021/12/16 06:46:56;;;;;;;110.35;65.95;;;11.10;99.90;;;;;;2069862;28;20026;-71
2021/12/16 06:48:02;;;;;;;106.75;64.70;;;11.10;99.90;;;;;;2068276;28;20101;-71
2021/12/16 06:49:04;;;;;;;108.40;67.15;;;11.10;99.90;;;;;;2076213;28;20028;-71
2021/12/16 06:50:05;;;;;;;108.60;67.50;;;11.10;99.90;;;;;;2066429;28;20466;-71
2021/12/16 06:51:14;;;;;;;111.75;68.80;;;11.10;99.90;;;;;;2060480;28;20113;-70
2021/12/16 06:52:18;;;;;;;116.72;66.53;;;11.10;99.90;;;;;;2071214;28;20018;-70
2021/12/16 06:53:28;;;;;;;116.03;69.20;;;11.10;99.90;;;;;;2071631;28;20251;-70
2021/12/16 06:54:35;;;;;;;114.00;69.53;;;11.10;99.90;;;;;;2067042;28;20014;-71
2021/12/16 06:55:43;;;;;;;117.90;69.97;;;11.10;99.90;;;;;;2068754;28;20030;-71
2021/12/16 06:57:00;;;;;;;120.25;72.28;;;11.00;99.90;;;;;;2071387;28;20047;-71
2021/12/16 06:58:12;;;;;;;117.00;69.38;;;11.00;99.90;;;;;;2069737;28;20494;-71
2021/12/16 06:59:27;;;;;;;119.85;70.50;;;11.00;99.90;;;;;;2072255;28;20429;-70
2021/12/16 07:00:41;;;;;;;115.72;69.90;;;11.00;99.90;;;;;;2069736;28;20026;-71
2021/12/16 07:01:49;;;;;;;118.50;73.07;;;11.00;99.90;;;;;;2068412;28;20028;-71
2021/12/16 07:03:58;;;;;;;122.95;71.28;;;11.00;99.90;;;;;;2067076;28;20046;-70
2021/12/16 07:04:59;;;;;;;115.82;70.60;;;11.00;99.90;;;;;;2067130;28;20023;-70
2021/12/16 07:05:59;;;;;;;114.35;70.50;;;11.00;99.90;;;;;;2067344;28;20038;-70
2021/12/16 07:07:00;;;;;;;122.05;72.43;;;11.00;99.90;;;;;;2068752;28;20026;-70
2021/12/16 07:08:04;;;;;;;117.45;72.13;;;11.00;99.90;;;;;;2072386;28;20022;-71
2021/12/16 07:09:13;;;;;;;118.78;72.55;;;11.00;99.90;;;;;;2069486;28;20651;-71
2021/12/16 07:10:15;;;;;;;115.85;70.03;;;11.00;99.90;;;;;;2070160;28;20022;-70
2021/12/16 07:11:16;;;;;;;120.70;70.82;;;11.00;99.90;;;;;;2066802;28;20026;-71
2021/12/16 07:12:24;;;;;;;123.88;72.28;;;11.10;99.90;;;;;;2066542;28;20038;-71
2021/12/16 07:13:37;;;;;;;125.10;71.88;;;11.10;99.90;;;;;;2069763;28;20029;-71
2021/12/16 07:14:39;;;;;;;119.47;72.28;;;11.10;99.90;;;;;;2066479;28;20458;-71
2021/12/16 07:15:40;;;;;;;119.30;71.43;;;11.10;99.90;;;;;;2069672;28;20054;-71
2021/12/16 07:16:46;;;;;;;118.07;73.00;;;11.10;99.90;;;;;;2075812;28;20120;-71
2021/12/16 07:17:48;;;;;;;122.85;72.97;;;11.10;99.90;;;;;;2073745;28;20022;-70
2021/12/16 07:18:49;;;;;;;117.97;72.78;;;11.10;99.90;;;;;;2068263;28;20109;-70
2021/12/16 07:19:49;;;;;;;116.72;70.50;;;11.10;99.90;;;;;;2069066;28;20022;-71
2021/12/16 07:20:50;;;;;;;122.53;73.38;;;11.10;99.90;;;;;;2070217;28;20095;-70
2021/12/16 07:21:50;;;;;;;119.20;72.18;;;11.10;99.90;;;;;;2071631;28;20364;-71
2021/12/16 07:22:51;;;;;;;122.25;71.03;;;11.20;99.90;;;;;;2072462;28;20695;-70
2021/12/16 07:23:52;;;;;;;123.88;73.25;;;11.20;99.90;;;;;;2072314;28;20045;-71
2021/12/16 07:24:52;;;;;;;129.43;74.30;;;11.10;99.90;;;;;;2072481;28;20549;-71
2021/12/16 07:25:53;;;;;;;125.97;73.70;;;11.20;99.90;;;;;;2072646;28;20445;-70
2021/12/16 07:26:54;;;;;;;121.55;70.90;;;11.20;99.90;;;;;;2072241;28;20105;-70
2021/12/16 07:27:55;;;;;;;122.65;73.55;;;11.20;99.90;;;;;;2072294;28;20088;-70
2021/12/16 07:28:55;;;;;;;126.53;73.03;;;11.10;99.90;;;;;;2072618;28;20048;-71
2021/12/16 07:29:56;;;;;;;117.05;71.15;;;11.20;99.90;;;;;;2072236;28;20037;-70
2021/12/16 07:30:57;;;;;;;125.90;71.47;;;11.20;99.90;;;;;;2072797;28;20058;-70
2021/12/16 07:32:01;;;;;;;124.68;73.72;;;11.20;99.90;;;;;;2071816;28;20506;-71
2021/12/16 07:33:03;;;;;;;119.57;70.95;;;11.20;99.90;;;;;;2072505;28;20483;-70
2021/12/16 07:34:05;;;;;;;122.78;72.07;;;11.20;99.90;;;;;;2072127;28;20037;-70
2021/12/16 07:35:09;;;;;;;126.95;72.05;;;11.20;99.90;;;;;;2072651;28;20041;-70
2021/12/16 07:36:09;;;;;;;128.88;73.28;;;11.20;99.90;;;;;;2072088;28;20411;-70
2021/12/16 07:37:10;;;;;;;121.18;71.05;;;11.20;99.90;;;;;;2072209;28;20018;-71
2021/12/16 07:38:12;;;;;;;120.43;72.65;;;11.20;99.90;;;;;;2067762;28;20362;-71
2021/12/16 07:39:16;;;;;;;118.85;70.60;;;11.20;99.90;;;;;;2071723;28;20117;-71
2021/12/16 07:40:20;;;;;;;123.25;71.10;;;11.20;99.90;;;;;;2073709;28;20077;-71
2021/12/16 07:41:25;;;;;;;125.82;72.05;;;11.20;99.90;;;;;;2075846;28;20080;-71
2021/12/16 07:42:31;;;;;;;119.25;68.30;;;11.20;99.90;;;;;;2072524;28;20029;-71